Latest Weather Observations for Tamworth Airport

IDN60801

Issued at 10:35 pm EST Friday 18 April 2014 (issued every 30 minutes, with the page automatically refreshed every 10 minutes)

About weather observations | Map of weather stations | Latest weather observations for NSW | Other Formats
Station Details ID: 055325 Name: TAMWORTH AIRPORT AWS Lat: -31.07 Lon: 150.84 Height: 394.9 m
Data from the previous 72 hours. | See also: Recent months at Tamworth Airport
Date/Time
EST
Temp
°C
App
Temp
°C
Dew
Point
Rel
Hum
%
Delta-T
°C
Wind Press
QNH
hPa
Press
MSL
hPa
Rain
since 9 am
mm
Dir
 
Spd
km/h
Gust
km/h
Spd
kts
Gust
kts
18/10:30pm 13.3 11.8 6.6 64 3.3 N 4 9 2 5 1017.9 - 0.0
18/10:00pm 12.4 9.8 6.0 65 3.1 N 9 13 5 7 1017.9 - 0.0
18/09:30pm 12.3 10.5 5.5 63 3.2 NW 4 7 2 4 1017.7 - 0.0
18/09:00pm 13.0 9.6 5.9 62 3.4 SW 13 15 7 8 1017.5 1016.5 0.0
18/08:30pm 13.3 10.2 5.7 60 3.7 SW 11 13 6 7 1017.2 - 0.0
18/08:00pm 13.5 9.9 6.6 63 3.4 SW 15 17 8 9 1016.8 - 0.0
18/07:30pm 14.6 12.5 6.7 59 3.9 WNW 7 9 4 5 1016.3 - 0.0
18/07:00pm 15.5 12.4 5.7 52 4.8 SW 11 13 6 7 1016.3 - 0.0
18/06:30pm 17.2 13.5 6.1 48 5.5 SW 15 17 8 9 1016.1 - 0.0
18/06:00pm 17.0 13.7 4.7 44 6.0 SW 11 13 6 7 1016.0 1014.9 0.0
18/05:30pm 18.9 15.2 4.7 39 7.0 WSW 13 15 7 8 1015.9 - 0.0
18/05:00pm 21.6 16.8 4.7 33 8.5 WSW 19 26 10 14 1015.6 - 0.0
18/04:30pm 23.1 19.1 5.1 31 9.2 W 15 20 8 11 1015.3 - 0.0
18/04:00pm 23.6 19.3 3.5 27 10.0 W 15 24 8 13 1015.2 - 0.0
18/03:30pm 23.7 19.4 3.1 26 10.1 WNW 15 20 8 11 1015.1 - 0.0
18/03:00pm 23.4 19.3 2.3 25 10.2 WSW 13 20 7 11 1015.2 1014.2 0.0
18/02:30pm 23.5 20.3 2.9 26 10.1 W 9 20 5 11 1015.2 - 0.0
18/02:00pm 23.5 19.6 3.4 27 9.9 WSW 13 24 7 13 1015.7 - 0.0
18/01:30pm 23.3 19.0 3.3 27 9.9 WNW 15 26 8 14 1015.9 - 0.0
18/01:00pm 22.7 18.9 3.8 29 9.4 WNW 13 26 7 14 1016.2 - 0.0
18/12:30pm 21.9 18.1 5.8 35 8.2 NNW 15 28 8 15 1016.7 - 0.0
18/12:00pm 21.4 17.6 5.7 36 8.0 WNW 15 24 8 13 1017.2 1016.2 0.0
18/11:30am 20.9 17.6 6.4 39 7.5 WNW 13 19 7 10 1017.7 - 0.0
18/11:00am 20.4 18.0 7.1 42 6.9 NNW 9 17 5 9 1018.1 - 0.0
18/10:30am 19.5 17.7 7.3 45 6.3 NW 6 15 3 8 1018.5 - 0.0
18/10:00am 18.5 16.5 7.0 47 5.9 NE 7 11 4 6 1018.8 - 0.0
18/09:30am 17.4 15.7 7.7 53 5.0 WNW 6 9 3 5 1019.1 - 0.0
18/09:00am 15.9 14.0 6.9 55 4.5 ENE 6 9 3 5 1019.3 1018.3 0.0
18/08:30am 14.0 13.4 7.3 64 3.3 SE 0 6 0 3 1019.4 - 0.0
18/08:00am 11.5 9.5 6.4 71 2.5 ESE 6 9 3 5 1019.4 - 0.0
18/07:30am 10.5 8.5 7.2 80 1.6 E 7 11 4 6 1019.2 - 0.0
18/07:00am 7.2 6.2 5.8 91 0.6 CALM 0 0 0 0 1019.3 - 0.0
18/06:30am 4.9 3.4 2.9 87 0.8 CALM 0 0 0 0 1019.0 - 0.0
18/06:00am 6.9 5.8 5.1 88 0.8 CALM 0 0 0 0 1018.7 1017.7 0.0
18/05:30am 6.5 4.9 4.3 86 1.0 S 2 7 1 4 1018.6 - 0.0
18/05:00am 6.9 5.3 4.7 86 1.0 SE 2 7 1 4 1018.3 - 0.0
18/04:30am 7.5 5.0 5.0 84 1.1 SE 7 9 4 5 1018.5 - 0.0
18/04:00am 7.5 4.7 5.0 84 1.1 SE 9 11 5 6 1018.4 - 0.0
18/03:30am 7.7 5.4 4.8 82 1.3 S 6 9 3 5 1018.5 - 0.0
18/03:00am 8.3 5.9 5.4 82 1.3 SSE 7 9 4 5 1018.5 1017.5 0.0
18/02:30am 8.3 5.9 5.4 82 1.3 SSE 7 9 4 5 1018.3 - 0.0
18/02:00am 7.7 5.8 4.7 81 1.3 NNE 4 7 2 4 1018.6 - 0.0
18/01:30am 8.6 6.1 4.8 77 1.7 NE 7 9 4 5 1018.8 - 0.0
18/01:00am 9.6 6.9 5.8 77 1.8 SSE 9 11 5 6 1019.1 - 0.0
18/12:30am 9.9 7.7 6.1 77 1.8 SE 7 9 4 5 1019.1 - 0.0
18/12:00am 10.9 7.6 6.5 74 2.1 S 13 15 7 8 1019.2 1018.2 0.0
 
Date/Time
EST
Temp
°C
App
Temp
°C
Dew
Point
Rel
Hum
%
Delta-T
°C
Wind Press
QNH
hPa
Press
MSL
hPa
Rain
since 9 am
mm
Dir
 
Spd
km/h
Gust
km/h
Spd
kts
Gust
kts
17/11:30pm 10.9 7.6 6.3 73 2.2 SSE 13 15 7 8 1019.2 - 0.0
17/11:00pm 11.3 8.8 6.4 72 2.4 SE 9 11 5 6 1019.5 - 0.0
17/10:30pm 12.1 8.3 7.4 73 2.3 S 17 17 9 9 1019.5 - 0.0
17/10:00pm 10.8 8.6 6.0 72 2.3 S 7 11 4 6 1019.6 - 0.0
17/09:30pm 12.1 8.8 6.6 69 2.7 SE 13 15 7 8 1019.4 - 0.0
17/09:00pm 12.8 9.2 6.6 66 3.0 SSE 15 17 8 9 1019.4 1018.4 0.0
17/08:30pm 13.8 10.9 6.7 62 3.5 S 11 13 6 7 1019.5 - 0.0
17/08:00pm 13.7 10.4 6.3 61 3.6 SE 13 17 7 9 1019.2 - 0.0
17/07:30pm 15.8 11.8 6.8 55 4.5 S 17 19 9 10 1019.0 - 0.0
17/07:00pm 16.6 12.5 6.4 51 5.1 S 17 19 9 10 1018.6 - 0.0
17/06:30pm 16.6 13.0 6.7 52 5.0 S 15 17 8 9 1018.4 - 0.0
17/06:00pm 17.3 13.7 6.8 50 5.3 S 15 17 8 9 1018.0 1017.0 0.0
17/05:30pm 18.3 14.8 5.5 43 6.4 S 13 15 7 8 1017.8 - 0.0
17/05:00pm 20.2 16.2 4.7 36 7.7 SSW 15 19 8 10 1017.6 - 0.0
17/04:30pm 22.1 17.5 3.7 30 9.1 SSW 17 24 9 13 1017.4 - 0.0
17/04:00pm 23.0 18.9 4.5 30 9.3 S 15 22 8 12 1017.2 - 0.0
17/03:30pm 22.9 19.1 3.9 29 9.4 S 13 22 7 12 1017.1 - 0.0
17/03:00pm 23.6 19.8 4.0 28 9.8 S 13 22 7 12 1017.2 1016.2 0.0
17/02:30pm 23.1 19.8 4.6 30 9.3 SW 11 20 6 11 1017.4 - 0.0
17/02:00pm 23.6 20.0 5.0 30 9.5 W 13 19 7 10 1017.6 - 0.0
17/01:30pm 22.3 18.0 5.3 33 8.6 WSW 17 24 9 13 1017.8 - 0.0
17/01:00pm 23.2 20.6 6.0 33 8.9 WSW 9 17 5 9 1017.9 - 0.0
17/12:30pm 21.4 18.2 5.3 35 8.1 WSW 11 20 6 11 1018.5 - 0.0
17/12:00pm 21.5 16.8 6.2 37 7.9 SW 20 26 11 14 1019.2 1018.2 0.0
17/11:30am 21.5 18.9 7.7 41 7.3 NW 11 17 6 9 1019.7 - 0.0
17/11:00am 20.1 17.7 6.8 42 6.9 WSW 9 11 5 6 1020.1 - 0.0
17/10:30am 19.9 18.3 8.6 48 6.0 W 7 13 4 7 1020.4 - 0.0
17/10:00am 19.4 18.1 10.1 55 5.1 N 7 13 4 7 1020.4 - 0.0
17/09:30am 18.1 17.7 9.7 58 4.5 SW 2 7 1 4 1020.6 - 0.0
17/09:00am 16.5 16.0 9.2 62 3.8 N 2 11 1 6 1020.6 1019.7 0.0
17/08:30am 15.2 14.7 9.3 68 3.1 NE 2 6 1 3 1020.5 - 0.0
17/08:00am 13.4 12.8 9.1 75 2.2 SSE 2 7 1 4 1020.6 - 0.0
17/07:30am 11.7 10.1 8.7 82 1.5 SE 7 9 4 5 1020.2 - 0.0
17/07:00am 9.5 7.9 7.9 90 0.8 SE 6 7 3 4 1019.9 - 0.0
17/06:30am 8.9 6.6 7.4 90 0.7 ESE 9 13 5 7 1019.4 - 0.0
17/06:00am 8.3 5.8 6.6 89 0.8 SSE 9 11 5 6 1019.5 1018.5 0.0
17/05:30am 8.4 5.9 6.7 89 0.8 SE 9 9 5 5 1019.2 - 0.0
17/05:00am 8.7 6.9 7.0 89 0.8 SSE 6 7 3 4 1019.1 - 0.0
17/04:30am 8.9 6.9 7.2 89 0.8 SSE 7 9 4 5 1018.8 - 0.0
17/04:00am 8.3 6.2 5.9 85 1.1 SSW 6 9 3 5 1018.6 - 0.0
17/03:30am 9.7 7.9 7.8 88 0.9 ESE 7 9 4 5 1018.3 - 0.0
17/03:00am 9.4 8.8 7.2 86 1.1 CALM 0 0 0 0 1018.4 1017.4 0.0
17/02:30am 10.2 8.0 7.8 85 1.2 ESE 9 11 5 6 1018.5 - 0.0
17/02:00am 10.4 8.3 8.3 87 1.0 SE 9 13 5 7 1018.5 - 0.0
17/01:30am 10.0 7.7 7.6 85 1.2 S 9 11 5 6 1018.7 - 0.0
17/01:00am 10.7 9.0 8.5 86 1.1 S 7 9 4 5 1018.7 - 0.0
17/12:30am 11.0 8.5 8.2 83 1.4 S 11 13 6 7 1018.9 - 0.0
17/12:00am 11.4 9.7 8.4 82 1.5 ESE 7 9 4 5 1018.7 1017.7 0.0
 
Date/Time
EST
Temp
°C
App
Temp
°C
Dew
Point
Rel
Hum
%
Delta-T
°C
Wind Press
QNH
hPa
Press
MSL
hPa
Rain
since 9 am
mm
Dir
 
Spd
km/h
Gust
km/h
Spd
kts
Gust
kts
16/11:30pm 11.9 10.4 9.1 83 1.4 SE 7 9 4 5 1018.8 - 0.0
16/11:00pm 12.4 10.9 9.2 81 1.6 SSE 7 9 4 5 1019.0 - 0.0
16/10:30pm 12.2 9.9 8.9 80 1.7 SSE 11 15 6 8 1018.9 - 0.0
16/10:00pm 13.6 10.7 9.8 78 2.0 S 15 17 8 9 1019.1 - 0.0
16/09:30pm 13.3 10.0 9.5 78 2.0 S 17 17 9 9 1019.0 - 0.0
16/09:00pm 13.1 10.4 9.0 76 2.1 SE 13 15 7 8 1018.9 1017.9 0.0
16/08:30pm 14.6 11.3 9.6 72 2.6 S 17 19 9 10 1018.5 - 0.0
16/08:00pm 15.4 12.2 10.0 70 2.9 S 17 20 9 11 1018.4 - 0.0
16/07:30pm 14.9 11.9 9.1 68 3.0 S 15 17 8 9 1018.0 - 0.0
16/07:00pm 16.2 13.5 8.9 62 3.8 S 13 17 7 9 1017.8 - 0.0
16/06:30pm 16.4 13.3 8.9 61 3.9 S 15 17 8 9 1017.4 - 0.0
16/06:00pm 17.6 14.5 8.7 56 4.7 S 15 17 8 9 1017.1 1016.1 0.0
16/05:30pm 19.5 16.4 8.8 50 5.7 S 15 20 8 11 1017.0 - 0.0
16/05:00pm 20.6 17.3 9.5 49 6.0 S 17 20 9 11 1016.7 - 0.0
16/04:30pm 20.8 16.8 9.1 47 6.3 S 20 24 11 13 1016.4 - 0.0
16/04:00pm 22.5 19.0 8.6 41 7.5 SSE 17 22 9 12 1016.3 - 0.0
16/03:30pm 23.1 19.1 8.4 39 7.9 S 19 30 10 16 1016.4 - 0.0
16/03:00pm 22.2 19.1 8.7 42 7.3 SSE 15 26 8 14 1016.3 1015.3 0.0
16/02:30pm 22.8 19.1 8.1 39 7.9 SSE 17 24 9 13 1016.5 - 0.0
16/02:00pm 22.8 19.4 9.2 42 7.4 S 17 26 9 14 1016.5 - 0.0
16/01:30pm 22.2 19.2 9.4 44 7.0 SSE 15 20 8 11 1016.7 - 0.0
16/01:00pm 22.6 20.0 10.7 47 6.7 S 15 22 8 12 1017.0 - 0.0
16/12:30pm 21.4 17.6 9.9 48 6.3 SSE 20 28 11 15 1017.4 - 0.0
16/12:00pm 21.1 18.8 10.3 50 6.0 SE 13 22 7 12 1018.0 1017.0 0.0
16/11:30am 21.0 18.3 10.5 51 5.8 ESE 15 20 8 11 1018.6 - 0.0
16/11:00am 20.7 18.1 10.8 53 5.5 SSE 15 20 8 11 1019.0 - 0.0
16/10:30am 20.4 18.7 9.9 51 5.7 S 9 17 5 9 1019.3 - 0.0
16/10:00am 19.5 17.1 10.0 54 5.2 SSE 13 19 7 10 1019.6 - 0.0
16/09:30am 18.2 15.6 10.8 62 4.1 SE 15 19 8 10 1019.6 - 0.0
16/09:00am 17.3 15.2 11.1 67 3.4 SE 13 17 7 9 1019.5 1018.5 0.0
16/08:30am 16.5 13.9 10.6 68 3.2 SE 15 19 8 10 1019.5 - 0.0
16/08:00am 15.9 14.8 10.7 71 2.8 ENE 7 11 4 6 1019.4 - 0.0
16/07:30am 13.8 13.9 10.2 79 1.9 CALM 0 0 0 0 1019.2 - 0.0
16/07:00am 11.3 9.9 8.9 85 1.2 ENE 6 9 3 5 1018.8 - 0.0
16/06:30am 11.0 9.5 9.1 88 1.0 SE 7 9 4 5 1018.6 - 0.0
16/06:00am 11.2 9.0 9.3 88 1.0 S 11 13 6 7 1018.4 1017.4 0.0
16/05:30am 9.7 8.0 7.5 86 1.1 WSW 6 7 3 4 1018.0 - 0.0
16/05:00am 10.8 10.2 7.3 79 1.7 CALM 0 0 0 0 1017.7 - 0.0
16/04:30am 12.1 10.6 9.1 82 1.5 SE 7 7 4 4 1017.6 - 0.0
16/04:00am 12.4 11.3 10.0 85 1.3 S 6 7 3 4 1017.6 - 0.0
16/03:30am 11.2 10.0 8.2 82 1.5 SSE 4 9 2 5 1017.8 - 0.0
16/03:00am 12.0 10.4 8.7 80 1.7 ESE 7 9 4 5 1017.6 1016.6 0.0
16/02:30am 11.9 10.2 8.4 79 1.8 SSE 7 9 4 5 1017.7 - 0.0
16/02:00am 12.6 10.9 8.5 76 2.1 SSE 7 11 4 6 1017.8 - 0.0
16/01:30am 13.3 10.2 9.0 75 2.2 S 15 17 8 9 1017.9 - 0.0
16/01:00am 13.0 10.2 8.7 75 2.2 S 13 17 7 9 1018.1 - 0.0
16/12:30am 13.2 10.5 9.1 76 2.1 S 13 15 7 8 1018.3 - 0.0
16/12:00am 13.6 10.9 10.2 80 1.8 S 15 15 8 8 1018.4 1017.4 0.0
 
Date/Time
EST
Temp
°C
App
Temp
°C
Dew
Point
Rel
Hum
%
Delta-T
°C
Wind Press
QNH
hPa
Press
MSL
hPa
Rain
since 9 am
mm
Dir
 
Spd
km/h
Gust
km/h
Spd
kts
Gust
kts
15/11:30pm 13.1 10.9 9.5 79 1.9 SSE 11 13 6 7 1018.5 - 0.0
15/11:00pm 14.2 11.8 10.2 77 2.1 SE 13 15 7 8 1018.6 - 0.0

Other Formats:

Comma delimited format used in spreadsheet applications
http://www.bom.gov.au/fwo/IDN60801/IDN60801.95762.axf

JavaScript Object Notation format (JSON) in row-major order
http://www.bom.gov.au/fwo/IDN60801/IDN60801.95762.json